KPTV

Porterville Municipal Airport

Porterville, California, USA
METAR KPTV 231056Z AUTO 17006KT 10SM CLR 15/09 A2985 RMK AO2 SLP115 T01500089
Observed Flight Rules
May-23 @ 10:56 UTC (8 minutes ago) Visual Flight Rules
Wind Visibility Clouds
170° at 6 knots 10 miles
  • Clear skies
Temperatures Readings
Current 15°C / 59°F
Dewpoint 9°C / 48°F
Humidity 68%
Altimeter 29.85" Hg
Pressure 1011.5 hPa
Elevation 135
METAR KPTV 231056Z AUTO 17006KT 10SM CLR 15/09 A2985 RMK AO2 SLP115 T01500089
Observed Flight Rules
May-23 @ 10:56 UTC
(8 minutes ago)
VFR
Wind Visibility
170° at 6 knots 10 miles
Clouds
  • Clear skies
Temperature Dewpoint
15°C / 59°F 9°C / 48°F
Humidity Altimeter Pressure
68% 29.85" Hg 1011.5 hPa